Latest Coastal Weather Observations for Derby

IDW60701

Issued at 4:35 am WST Friday 24 October 2014 (issued every 10 minutes, with the page automatically refreshed every 10 minutes)

About coastal observations | Map of coastal stations | Coastal observations for WA | Marine services | Other Formats
Station Details ID: 003032 Name: DERBY AERO Lat: -17.37 Lon: 123.66 Height: 6.2 m
Data from the previous 72 hours. | See also: Recent months at Derby
Date/Time
WST
Temp

°C
Wind Pressure Rain
since 9am
mm
Weather Cloud Vis
km
Sea
Height
m
Swell
Dir
 
Speed
knots
Gust
knots
hPa Trend Height
m
Period
s
Dir
24/04:30am 27.1 NNW 8 10 1011.9 - 0.0 - - - - - - -
24/04:00am 27.0 NW 7 8 1011.5 - 0.0 - - - - - - -
24/03:30am 27.0 NW 8 10 1011.1 - 0.0 - - - - - - -
24/03:00am 27.0 NW 10 12 1010.6 - 0.0 - - - - - - -
24/02:30am 27.0 WNW 10 13 1010.4 - 0.0 - - - - - - -
24/02:00am 26.8 WNW 11 13 1010.3 - 0.0 - - - - - - -
24/01:30am 26.8 WNW 12 15 1010.1 - 0.0 - - - - - - -
24/01:00am 27.0 WNW 13 17 1010.4 - 0.0 - - - - - - -
24/12:30am 27.3 WNW 15 18 1010.9 - 0.0 - - - - - - -
24/12:00am 27.5 WNW 13 17 1011.4 - 0.0 - - - - - - -
 
Date/Time
WST
Temp

°C
Wind Pressure Rain
since 9am
mm
Weather Cloud Vis
km
Sea
Height
m
Swell
Dir
 
Speed
knots
Gust
knots
hPa Trend Height
m
Period
s
Dir
23/11:30pm 27.5 WNW 12 14 1011.7 - 0.0 - - - - - - -
23/11:00pm 27.7 NW 13 17 1011.9 - 0.0 - - - - - - -
23/10:30pm 28.0 WNW 13 16 1011.9 - 0.0 - - - - - - -
23/10:00pm 28.1 NW 7 8 1012.8 - 0.0 - - - - - - -
23/09:30pm 28.1 NNW 6 7 1013.0 - 0.0 - - - - - - -
23/09:00pm 28.3 N 7 8 1013.0 - 0.0 - - - - - - -
23/08:30pm 28.6 NE 6 9 1013.1 - 0.0 - - - - - - -
23/08:00pm 29.2 ENE 6 7 1013.2 - 0.0 - - - - - - -
23/07:30pm 29.9 E 8 13 1013.1 - 0.0 - - - - - - -
23/07:00pm 29.7 ENE 10 13 1013.2 - 0.0 - - - - - - -
23/06:30pm 29.1 N 13 16 1011.7 - 0.0 - - - - - - -
23/06:00pm 29.4 N 17 23 1010.9 - 0.0 - - - - - - -
23/05:30pm 30.0 N 17 22 1009.8 - 0.0 - - - - - - -
23/05:00pm 31.0 N 18 23 1009.2 - 0.0 - - - - - - -
23/04:30pm 31.4 N 19 24 1008.7 - 0.0 - - - - - - -
23/04:00pm 31.6 NNW 19 24 1008.5 - 0.0 - - - - - - -
23/03:30pm 31.7 NNW 20 26 1008.6 - 0.0 - - - - - - -
23/03:00pm 32.5 NNW 19 23 1008.9 - 0.0 - - - - - - -
23/02:30pm 32.9 NNW 21 24 1009.2 - 0.0 - - - - - - -
23/02:00pm 32.8 NNW 20 24 1009.4 - 0.0 - - - - - - -
23/01:30pm 33.9 NNW 16 19 1009.7 - 0.0 - - - - - - -
23/01:00pm 33.6 N 16 20 1010.1 - 0.0 - - - - - - -
23/12:30pm 34.0 NNW 13 18 1010.7 - 0.0 - - - - - - -
23/12:00pm 33.6 N 11 15 1011.2 - 0.0 - - - - - - -
23/11:30am 32.8 N 11 17 1011.7 - 0.0 - - - - - - -
23/11:00am 32.8 N 11 17 1012.5 - 0.0 - - - - - - -
23/10:30am 32.1 NNW 14 18 1012.4 - 0.0 - - - - - - -
23/10:00am 31.5 NNW 14 18 1012.7 - 0.0 - - - - - - -
23/09:30am 30.3 NNW 13 18 1013.1 - 0.0 - - - - - - -
23/09:00am 30.2 N 10 13 1013.3 - 0.0 - - - - - - -
23/08:30am 29.6 NW 10 13 1013.4 - 0.0 - - - - - - -
23/08:00am 29.1 NNW 9 12 1013.5 - 0.0 - - - - - - -
23/07:30am 28.5 NNW 10 14 1013.3 - 0.0 - - - - - - -
23/07:00am 28.1 NNW 10 13 1012.5 - 0.0 - - - - - - -
23/06:30am 27.3 NW 10 12 1012.3 - 0.0 - - - - - - -
23/06:00am 26.9 NW 9 11 1012.0 - 0.0 - - - - - - -
23/05:30am 26.6 WNW 10 13 1011.9 - 0.0 - - - - - - -
23/05:00am 26.8 NW 11 15 1011.4 - 0.0 - - - - - - -
23/04:30am 26.8 NW 11 13 1011.1 - 0.0 - - - - - - -
23/04:00am 26.9 NNW 11 14 1010.9 - 0.0 - - - - - - -
23/03:30am 26.7 NNW 11 15 1010.8 - 0.0 - - - - - - -
23/03:00am 26.7 NNW 11 13 1010.7 - 0.0 - - - - - - -
23/02:30am 26.8 N 11 14 1011.0 - 0.0 - - - - - - -
23/02:00am 26.9 N 11 14 1010.8 - 0.0 - - - - - - -
23/01:30am 27.2 N 10 11 1011.3 - 0.0 - - - - - - -
23/01:00am 27.2 NNW 13 15 1011.0 - 0.0 - - - - - - -
23/12:30am 27.2 NNW 14 17 1011.4 - 0.0 - - - - - - -
23/12:00am 27.2 NNW 14 17 1011.9 - 0.0 - - - - - - -
 
Date/Time
WST
Temp

°C
Wind Pressure Rain
since 9am
mm
Weather Cloud Vis
km
Sea
Height
m
Swell
Dir
 
Speed
knots
Gust
knots
hPa Trend Height
m
Period
s
Dir
22/11:30pm 27.2 NNW 13 16 1012.2 - 0.0 - - - - - - -
22/11:00pm 27.4 NNW 13 16 1012.4 - 0.0 - - - - - - -
22/10:30pm 27.4 NNW 13 15 1012.4 - 0.0 - - - - - - -
22/10:00pm 27.6 NNW 14 17 1012.5 - 0.0 - - - - - - -
22/09:30pm 27.9 NW 14 17 1012.6 - 0.0 - - - - - - -
22/09:00pm 28.1 NW 13 17 1012.7 - 0.0 - - - - - - -
22/08:30pm 28.3 N 13 17 1012.2 - 0.0 - - - - - - -
22/08:00pm 28.4 N 14 18 1011.8 - 0.0 - - - - - - -
22/07:30pm 28.5 NNW 15 19 1011.3 - 0.0 - - - - - - -
22/07:00pm 28.6 NNW 15 20 1011.0 - 0.0 - - - - - - -
22/06:30pm 28.9 NNW 14 19 1010.6 - 0.0 - - - - - - -
22/06:00pm 29.2 NNW 15 20 1010.3 - 0.0 - - - - - - -
22/05:30pm 29.4 NNW 18 22 1010.0 - 0.0 - - - - - - -
22/05:00pm 30.6 NNW 17 21 1009.6 - 0.0 - - - - - - -
22/04:30pm 31.5 NNW 15 19 1009.6 - 0.0 - - - - - - -
22/04:00pm 32.5 NNW 14 19 1009.6 - 0.0 - - - - - - -
22/03:30pm 33.4 NNW 16 20 1009.6 - 0.0 - - - - - - -
22/03:00pm 34.5 NNW 15 18 1009.5 - 0.0 - - - - - - -
22/02:30pm 34.8 NNW 15 19 1009.6 - 0.0 - - - - - - -
22/02:00pm 34.6 NNW 15 19 1010.0 - 0.0 - - - - - - -
22/01:30pm 34.7 NNW 16 20 1009.9 - 0.0 - - - - - - -
22/01:00pm 33.3 NNW 15 19 1010.5 - 0.0 - - - - - - -
22/12:30pm 33.1 NNW 15 19 1011.0 - 0.0 - - - - - - -
22/12:00pm 32.7 NNW 16 20 1011.5 - 0.0 - - - - - - -
22/11:30am 32.1 NNW 17 21 1012.1 - 0.0 - - - - - - -
22/11:00am 32.5 NNW 15 20 1012.6 - 0.0 - - - - - - -
22/10:30am 31.3 NNW 13 17 1013.0 - 0.0 - - - - - - -
22/10:00am 31.5 NNW 16 20 1013.2 - 0.0 - - - - - - -
22/09:30am 31.2 NNW 16 21 1013.0 - 0.0 - - - - - - -
22/09:00am 30.5 NNW 14 18 1013.4 - - - - - - - - -
22/08:30am 30.1 NNW 12 18 1013.6 - - - - - - - - -
22/08:00am 29.2 N 14 19 1013.4 - - - - - - - - -
22/07:30am 28.8 NNW 14 18 1013.0 - - - - - - - - -
22/07:00am 28.3 NNW 15 18 1012.6 - - - - - - - - -
22/06:30am 27.8 NNW 13 16 1012.2 - - - - - - - - -
22/06:00am 27.3 NNW 10 14 1012.0 - - - - - - - - -
22/05:30am 26.6 N 8 10 1011.9 - - - - - - - - -
22/05:00am 26.7 N 9 11 1011.7 - - - - - - - - -
22/04:30am 26.9 NW 13 16 1011.0 - - - - - - - - -
22/04:00am 26.9 NNW 15 19 1010.8 - - - - - - - - -
22/03:30am 26.9 NNW 14 17 1010.6 - - - - - - - - -
22/03:00am 26.5 N 11 13 1010.7 - 0.0 - - - - - - -
22/02:30am 26.3 N 10 14 1010.8 - - - - - - - - -
22/02:00am 26.2 NNE 9 13 1011.2 - - - - - - - - -
22/01:30am 26.6 N 9 12 1011.0 - - - - - - - - -
22/01:00am 26.9 NNW 12 15 1010.8 - - - - - - - - -
22/12:30am 26.8 N 9 12 1011.2 - - - - - - - - -
22/12:00am 27.1 N 9 11 1011.3 - - - - - - - - -
 
Date/Time
WST
Temp

°C
Wind Pressure Rain
since 9am
mm
Weather Cloud Vis
km
Sea
Height
m
Swell
Dir
 
Speed
knots
Gust
knots
hPa Trend Height
m
Period
s
Dir
21/11:30pm 27.4 N 10 12 1011.8 - - - - - - - - -
21/11:00pm 27.6 N 9 13 1012.1 - - - - - - - - -
21/10:30pm 28.0 N 9 11 1012.3 - - - - - - - - -
21/10:00pm 28.3 N 10 13 1012.5 - - - - - - - - -
21/09:30pm 28.9 NNW 9 13 1012.4 - - - - - - - - -
21/09:00pm 29.4 N 8 10 1012.0 - 0.0 - - - - - - -
21/08:30pm 30.1 NNW 9 11 1011.8 - - - - - - - - -
21/08:00pm 30.6 NNW 10 12 1011.5 - - - - - - - - -
21/07:30pm 31.0 NW 10 13 1011.3 - - - - - - - - -
21/07:00pm 30.9 NNW 11 14 1010.6 - - - - - - - - -
21/06:30pm 30.9 NNW 11 14 1010.3 - - - - - - - - -
21/06:00pm 31.6 NW 12 15 1009.6 - - - - - - - - -
21/05:30pm 32.6 NNW 13 16 1009.2 - - - - - - - - -
21/05:00pm 33.9 NNW 12 16 1009.0 - - - - - - - - -
21/04:30pm 34.3 NNW 15 19 1008.8 - - - - - - - - -
21/04:00pm 36.4 NNW 16 18 1008.6 - - - - - - - - -
21/03:30pm 37.9 NNW 14 17 1008.7 - - - - - - - - -
21/03:00pm 38.6 NNW 13 16 1008.8 - - - - - - - - -
21/02:30pm 37.8 NW 16 23 1008.8 - - - - - - - - -
21/02:00pm 38.2 NNW 13 17 1009.4 - - - - - - - - -
21/01:30pm 41.9 SSE 7 13 1009.6 - - - - - - - - -
21/01:00pm 41.2 S 5 12 1010.2 - - - - - - - - -
21/12:30pm 40.3 S 14 21 1010.9 - - - - - - - - -
21/12:00pm 39.4 S 8 15 1011.7 - - - - - - - - -
21/11:30am 37.2 S 6 14 1012.7 - - - - - - - - -
21/11:00am - SSW 7 13 1013.3 - - - - - - - - -
21/10:30am - SSW 5 10 1013.8 - - - - - - - - -
21/10:00am - SSE 6 10 1014.5 - - - - - - - - -
21/09:30am - - - - 1014.9 - - - - - - - - -
21/09:00am - - - - 1015.0 - - - - - - - - -
21/08:30am - - - - 1015.4 - - - - - - - - -
21/08:00am - - - - 1015.0 - - - - - - - - -
21/07:30am - - - - 1015.1 - - - - - - - - -
21/07:00am - - - - 1015.0 - - - - - - - - -
21/06:30am - - - - 1014.9 - - - - - - - - -
21/06:00am - - - - 1014.5 - - - - - - - - -
21/05:30am - - - - 1014.1 - - - - - - - - -
21/05:00am - - - - 1013.6 - - - - - - - - -

Other Formats:

Comma delimited format used in spreadsheet applications
http://www.bom.gov.au/fwo/IDW60701/IDW60701.95205.axf

JavaScript Object Notation format (JSON) in row-major order
http://www.bom.gov.au/fwo/IDW60701/IDW60701.95205.json